createdAt,value
2022-07-25T00:00:24.812Z,18.34
2022-07-25T00:01:09.361Z,18.33
2022-07-25T00:01:44.505Z,18.30
2022-07-25T00:02:18.022Z,18.29
2022-07-25T00:02:51.172Z,18.28
2022-07-25T00:03:24.784Z,18.27
2022-07-25T00:04:01.644Z,18.25
2022-07-25T00:04:35.921Z,18.24
2022-07-25T00:05:09.245Z,18.23
2022-07-25T00:05:42.315Z,18.23
2022-07-25T00:06:17.727Z,18.23
2022-07-25T00:06:51.591Z,18.22
2022-07-25T00:07:24.773Z,18.22
2022-07-25T00:07:57.911Z,18.22
2022-07-25T00:08:31.506Z,18.22
2022-07-25T00:09:05.074Z,18.21
2022-07-25T00:09:38.089Z,18.20
2022-07-25T00:10:11.324Z,18.19
2022-07-25T00:10:44.850Z,18.19
2022-07-25T00:11:18.057Z,18.20
2022-07-25T00:11:51.328Z,18.19
2022-07-25T00:12:24.799Z,18.20
2022-07-25T00:12:57.795Z,18.19
2022-07-25T00:13:30.908Z,18.20
2022-07-25T00:14:05.353Z,18.20
2022-07-25T00:14:38.898Z,18.20
2022-07-25T00:15:12.710Z,18.19
2022-07-25T00:15:45.879Z,18.19
2022-07-25T00:16:19.646Z,18.18
2022-07-25T00:16:53.056Z,18.18
2022-07-25T00:17:26.291Z,18.16
2022-07-25T00:17:59.384Z,18.16
2022-07-25T00:18:32.538Z,18.16
2022-07-25T00:19:06.062Z,18.14
2022-07-25T00:19:40.355Z,18.14
2022-07-25T00:20:13.464Z,18.14
2022-07-25T00:20:47.714Z,18.14
2022-07-25T00:21:21.149Z,18.13
2022-07-25T00:21:54.230Z,18.12
2022-07-25T00:22:27.382Z,18.11
2022-07-25T00:23:00.466Z,18.11
2022-07-25T00:23:33.462Z,18.11
2022-07-25T00:24:07.365Z,18.10
2022-07-25T00:24:40.814Z,18.10
2022-07-25T00:25:14.640Z,18.09
2022-07-25T00:25:47.659Z,18.09
2022-07-25T00:26:20.751Z,18.09
2022-07-25T00:26:53.947Z,18.09
2022-07-25T00:27:27.332Z,18.09
2022-07-25T00:28:00.530Z,18.08
2022-07-25T00:28:33.716Z,18.07
2022-07-25T00:29:06.814Z,18.07
2022-07-25T00:29:40.344Z,18.05
2022-07-25T00:30:13.891Z,18.05
2022-07-25T00:30:47.135Z,18.05
2022-07-25T00:31:20.343Z,18.04
2022-07-25T00:31:53.436Z,18.04
2022-07-25T00:32:26.552Z,18.04
2022-07-25T00:32:59.806Z,18.03
2022-07-25T00:33:32.915Z,18.03
2022-07-25T00:34:06.393Z,18.02
2022-07-25T00:34:39.689Z,18.02
2022-07-25T00:35:12.867Z,18.01
2022-07-25T00:35:46.419Z,18.00
2022-07-25T00:36:19.757Z,18.00
2022-07-25T00:36:53.032Z,18.00
2022-07-25T00:37:26.126Z,18.00
2022-07-25T00:37:59.261Z,18.00
2022-07-25T00:38:32.357Z,18.00
2022-07-25T00:39:05.895Z,17.99
2022-07-25T00:39:38.883Z,17.98
2022-07-25T00:40:12.624Z,17.98
2022-07-25T00:40:45.779Z,17.98
2022-07-25T00:41:27.424Z,17.95
2022-07-25T00:42:00.431Z,17.93
2022-07-25T00:42:33.726Z,17.93
2022-07-25T00:43:06.819Z,17.91
2022-07-25T00:43:44.553Z,17.91
2022-07-25T00:44:31.454Z,17.91
2022-07-25T00:45:05.534Z,17.89
2022-07-25T00:45:38.722Z,17.86
2022-07-25T00:46:18.973Z,17.86
2022-07-25T00:46:53.696Z,17.85
2022-07-25T00:47:27.020Z,17.84
2022-07-25T00:48:00.077Z,17.83
2022-07-25T00:48:33.281Z,17.83
2022-07-25T00:49:06.596Z,17.82
2022-07-25T00:49:39.648Z,17.83
2022-07-25T00:50:12.873Z,17.83
2022-07-25T00:50:45.922Z,17.83
2022-07-25T00:51:19.040Z,17.82
2022-07-25T00:51:53.709Z,17.82
2022-07-25T00:52:26.860Z,17.83
2022-07-25T00:53:00.668Z,17.83
2022-07-25T00:53:34.177Z,17.83
2022-07-25T00:54:07.792Z,17.83
2022-07-25T00:54:41.357Z,17.83
2022-07-25T00:55:14.592Z,17.83
2022-07-25T00:55:48.164Z,17.81
2022-07-25T00:56:21.305Z,17.80
2022-07-25T00:56:54.397Z,17.79
2022-07-25T00:57:27.558Z,17.78
2022-07-25T00:58:00.856Z,17.77
2022-07-25T00:58:34.333Z,17.76
2022-07-25T00:59:07.848Z,17.75
2022-07-25T00:59:40.905Z,17.75
2022-07-25T01:00:16.133Z,17.75
2022-07-25T01:00:49.415Z,17.75
2022-07-25T01:01:22.518Z,17.74
2022-07-25T01:01:55.669Z,17.74
2022-07-25T01:02:29.089Z,17.74
2022-07-25T01:03:02.358Z,17.75
2022-07-25T01:03:35.696Z,17.75
2022-07-25T01:04:09.581Z,17.76
2022-07-25T01:04:42.755Z,17.75
2022-07-25T01:05:15.904Z,17.77
2022-07-25T01:05:53.740Z,17.77
2022-07-25T01:06:28.293Z,17.78
2022-07-25T01:07:02.240Z,17.77
2022-07-25T01:07:35.594Z,17.76
2022-07-25T01:08:09.531Z,17.75
2022-07-25T01:08:43.137Z,17.75
2022-07-25T01:09:17.072Z,17.74
2022-07-25T01:09:50.966Z,17.74
2022-07-25T01:10:24.330Z,17.74
2022-07-25T01:10:57.446Z,17.74
2022-07-25T01:11:30.563Z,17.74
2022-07-25T01:12:04.259Z,17.73
2022-07-25T01:12:52.030Z,17.73
2022-07-25T01:13:25.079Z,17.72
2022-07-25T01:13:58.226Z,17.71
2022-07-25T01:14:31.408Z,17.70
2022-07-25T01:15:04.759Z,17.70
2022-07-25T01:15:37.809Z,17.69
2022-07-25T01:16:12.634Z,17.70
2022-07-25T01:16:45.823Z,17.70
2022-07-25T01:17:18.977Z,17.70
2022-07-25T01:17:53.121Z,17.70
2022-07-25T01:18:26.299Z,17.71
2022-07-25T01:18:59.819Z,17.71
2022-07-25T01:19:33.094Z,17.71
2022-07-25T01:20:06.833Z,17.70
2022-07-25T01:20:39.929Z,17.70
2022-07-25T01:21:13.270Z,17.70
2022-07-25T01:21:46.446Z,17.69
2022-07-25T01:22:19.468Z,17.68
2022-07-25T01:22:53.973Z,17.68
2022-07-25T01:23:27.724Z,17.67
2022-07-25T01:24:00.937Z,17.66
2022-07-25T01:24:35.602Z,17.66
2022-07-25T01:25:09.002Z,17.66
2022-07-25T01:25:42.076Z,17.64
2022-07-25T01:26:15.209Z,17.64
2022-07-25T01:26:48.236Z,17.64
2022-07-25T01:27:21.286Z,17.63
2022-07-25T01:27:56.138Z,17.62
2022-07-25T01:28:29.602Z,17.62
2022-07-25T01:29:02.775Z,17.60
2022-07-25T01:29:36.024Z,17.59
2022-07-25T01:30:11.949Z,17.60
2022-07-25T01:30:45.227Z,17.59
2022-07-25T01:31:18.956Z,17.59
2022-07-25T01:31:52.286Z,17.59
2022-07-25T01:32:25.450Z,17.59
2022-07-25T01:32:58.595Z,17.58
2022-07-25T01:33:31.709Z,17.59
2022-07-25T01:34:05.125Z,17.59
2022-07-25T01:34:38.357Z,17.58
2022-07-25T01:35:13.123Z,17.57
2022-07-25T01:35:47.170Z,17.57
2022-07-25T01:36:20.457Z,17.57
2022-07-25T01:36:53.846Z,17.56
2022-07-25T01:37:26.861Z,17.56
2022-07-25T01:37:59.918Z,17.56
2022-07-25T01:38:33.081Z,17.56
2022-07-25T01:39:06.187Z,17.55
2022-07-25T01:39:39.290Z,17.55
2022-07-25T01:40:12.533Z,17.54
2022-07-25T01:40:45.683Z,17.53
2022-07-25T01:41:22.363Z,17.52
2022-07-25T01:41:55.789Z,17.50
2022-07-25T01:42:29.080Z,17.49
2022-07-25T01:43:02.143Z,17.48
2022-07-25T01:43:35.377Z,17.48
2022-07-25T01:44:08.737Z,17.48
2022-07-25T01:44:42.109Z,17.48
2022-07-25T01:45:15.219Z,17.49
2022-07-25T01:45:48.370Z,17.48
2022-07-25T01:46:21.527Z,17.47
2022-07-25T01:46:54.639Z,17.48
2022-07-25T01:47:27.770Z,17.48
2022-07-25T01:48:00.953Z,17.48
2022-07-25T01:48:34.493Z,17.47
2022-07-25T01:49:07.705Z,17.47
2022-07-25T01:49:41.305Z,17.48
2022-07-25T01:50:14.372Z,17.47
2022-07-25T01:50:47.401Z,17.47
2022-07-25T01:51:22.208Z,17.46
2022-07-25T01:51:55.285Z,17.45
2022-07-25T01:52:28.350Z,17.44
2022-07-25T01:53:01.306Z,17.44
2022-07-25T01:53:34.469Z,17.43
2022-07-25T01:54:10.494Z,17.44
2022-07-25T01:54:43.793Z,17.42
2022-07-25T01:55:17.343Z,17.42
2022-07-25T01:55:50.365Z,17.41
2022-07-25T01:56:25.226Z,17.39
2022-07-25T01:56:58.637Z,17.38
2022-07-25T01:57:32.176Z,17.35
2022-07-25T01:58:05.283Z,17.33
2022-07-25T01:58:40.466Z,17.32
2022-07-25T01:59:13.597Z,17.31
2022-07-25T01:59:46.621Z,17.29
2022-07-25T02:00:19.839Z,17.28
2022-07-25T02:00:52.905Z,17.28
2022-07-25T02:01:26.115Z,17.27
2022-07-25T02:01:59.453Z,17.28
2022-07-25T02:02:32.511Z,17.29
2022-07-25T02:03:24.224Z,17.28
2022-07-25T02:03:57.302Z,17.28
2022-07-25T02:04:30.344Z,17.27
2022-07-25T02:05:03.883Z,17.26
2022-07-25T02:05:37.104Z,17.27
2022-07-25T02:06:10.175Z,17.26
2022-07-25T02:06:43.421Z,17.25
2022-07-25T02:07:16.580Z,17.25
2022-07-25T02:07:49.661Z,17.25
2022-07-25T02:08:23.521Z,17.25
2022-07-25T02:08:56.579Z,17.25
2022-07-25T02:09:30.065Z,17.24
2022-07-25T02:10:05.839Z,17.23
2022-07-25T02:10:39.375Z,17.23
2022-07-25T02:11:12.480Z,17.22
2022-07-25T02:11:45.661Z,17.22
2022-07-25T02:12:19.337Z,17.21
2022-07-25T02:12:52.408Z,17.21
2022-07-25T02:13:26.541Z,17.21
2022-07-25T02:14:00.111Z,17.21
2022-07-25T02:14:33.751Z,17.20
2022-07-25T02:15:07.647Z,17.21
2022-07-25T02:15:40.813Z,17.20
2022-07-25T02:16:14.211Z,17.20
2022-07-25T02:16:47.334Z,17.20
2022-07-25T02:17:20.473Z,17.20
2022-07-25T02:17:53.777Z,17.20
2022-07-25T02:18:26.803Z,17.20
2022-07-25T02:18:59.847Z,17.20
2022-07-25T02:19:33.364Z,17.20
2022-07-25T02:20:07.425Z,17.19
2022-07-25T02:20:40.634Z,17.19
2022-07-25T02:21:14.548Z,17.19
2022-07-25T02:21:48.031Z,17.18
2022-07-25T02:22:21.003Z,17.16
2022-07-25T02:22:54.082Z,17.15
2022-07-25T02:23:27.213Z,17.12
2022-07-25T02:24:00.193Z,17.09
2022-07-25T02:24:33.324Z,17.08
2022-07-25T02:25:07.005Z,17.08
2022-07-25T02:25:40.229Z,17.07
2022-07-25T02:26:14.961Z,17.06
2022-07-25T02:26:48.271Z,17.06
2022-07-25T02:27:21.365Z,17.06
2022-07-25T02:27:54.516Z,17.06
2022-07-25T02:28:27.541Z,17.07
2022-07-25T02:29:00.548Z,17.07
2022-07-25T02:29:33.744Z,17.08
2022-07-25T02:30:07.883Z,17.08
2022-07-25T02:30:41.077Z,17.09
2022-07-25T02:31:14.342Z,17.08
2022-07-25T02:31:47.496Z,17.08
2022-07-25T02:32:20.561Z,17.08
2022-07-25T02:32:54.233Z,17.08
2022-07-25T02:33:27.388Z,17.08
2022-07-25T02:34:00.451Z,17.08
2022-07-25T02:34:33.755Z,17.07
2022-07-25T02:35:12.968Z,17.07
2022-07-25T02:35:46.579Z,17.04
2022-07-25T02:36:19.776Z,17.02
2022-07-25T02:36:53.084Z,17.01
2022-07-25T02:37:27.613Z,17.00
2022-07-25T02:38:00.870Z,16.99
2022-07-25T02:38:33.965Z,16.99
2022-07-25T02:39:06.995Z,17.00
2022-07-25T02:39:40.095Z,17.00
2022-07-25T02:40:13.518Z,17.01
2022-07-25T02:40:51.494Z,17.01
2022-07-25T02:41:24.586Z,17.00
2022-07-25T02:41:57.626Z,17.01
2022-07-25T02:42:30.798Z,17.01
2022-07-25T02:43:03.979Z,17.03
2022-07-25T02:43:37.134Z,17.02
2022-07-25T02:44:10.510Z,17.03
2022-07-25T02:44:43.805Z,17.03
2022-07-25T02:45:16.923Z,17.04
2022-07-25T02:45:50.235Z,17.04
2022-07-25T02:46:23.471Z,17.03
2022-07-25T02:46:56.571Z,17.03
2022-07-25T02:47:29.938Z,17.04
2022-07-25T02:48:03.041Z,17.03
2022-07-25T02:48:36.090Z,17.03
2022-07-25T02:49:09.210Z,17.03
2022-07-25T02:49:42.385Z,17.02
2022-07-25T02:50:15.530Z,17.01
2022-07-25T02:50:48.798Z,17.00
2022-07-25T02:51:21.902Z,16.98
2022-07-25T02:51:55.395Z,16.96
2022-07-25T02:52:28.555Z,16.95
2022-07-25T02:53:01.831Z,16.94
2022-07-25T02:53:56.180Z,16.93
2022-07-25T02:54:28.111Z,16.90
2022-07-25T02:55:02.970Z,16.89
2022-07-25T02:55:40.725Z,16.87
2022-07-25T02:56:14.221Z,16.88
2022-07-25T02:56:47.955Z,16.88
2022-07-25T02:57:21.242Z,16.89
2022-07-25T02:57:54.369Z,16.89
2022-07-25T02:58:27.509Z,16.87
2022-07-25T02:59:00.630Z,16.86
2022-07-25T02:59:33.892Z,16.87
2022-07-25T03:00:07.848Z,16.87
2022-07-25T03:00:41.138Z,16.88
2022-07-25T03:01:17.599Z,16.88
2022-07-25T03:01:50.849Z,16.89
2022-07-25T03:02:24.563Z,16.89
2022-07-25T03:02:58.653Z,16.89
2022-07-25T03:03:31.784Z,16.89
2022-07-25T03:04:06.099Z,16.87
2022-07-25T03:04:39.488Z,16.86
2022-07-25T03:05:15.355Z,16.85
2022-07-25T03:05:48.380Z,16.84
2022-07-25T03:06:21.749Z,16.84
2022-07-25T03:06:54.831Z,16.85
2022-07-25T03:07:28.036Z,16.85
2022-07-25T03:08:01.257Z,16.85
2022-07-25T03:08:34.360Z,16.86
2022-07-25T03:09:07.455Z,16.86
2022-07-25T03:09:40.597Z,16.87
2022-07-25T03:10:15.347Z,16.89
2022-07-25T03:10:48.403Z,16.89
2022-07-25T03:11:21.563Z,16.89
2022-07-25T03:11:54.679Z,16.90
2022-07-25T03:12:27.985Z,16.90
2022-07-25T03:13:01.159Z,16.91
2022-07-25T03:13:34.586Z,16.92
2022-07-25T03:14:10.745Z,16.92
2022-07-25T03:14:44.040Z,16.92
2022-07-25T03:15:17.226Z,16.92
2022-07-25T03:15:50.298Z,16.92
2022-07-25T03:16:23.941Z,16.93
2022-07-25T03:16:57.245Z,16.93
2022-07-25T03:17:30.452Z,16.93
2022-07-25T03:18:03.731Z,16.94
2022-07-25T03:18:37.185Z,16.94
2022-07-25T03:19:13.030Z,16.95
2022-07-25T03:19:46.246Z,16.95
2022-07-25T03:20:19.380Z,16.96
2022-07-25T03:20:52.467Z,16.96
2022-07-25T03:21:25.616Z,16.96
2022-07-25T03:21:58.706Z,16.97
2022-07-25T03:22:31.809Z,16.99
2022-07-25T03:23:05.098Z,16.98
2022-07-25T03:23:38.936Z,16.99
2022-07-25T03:24:12.244Z,16.99
2022-07-25T03:24:45.358Z,17.00
2022-07-25T03:25:21.441Z,17.00
2022-07-25T03:25:56.106Z,17.01
2022-07-25T03:26:29.227Z,17.01
2022-07-25T03:27:02.718Z,17.02
2022-07-25T03:27:35.827Z,17.03
2022-07-25T03:28:09.014Z,17.04
2022-07-25T03:28:42.141Z,17.04
2022-07-25T03:29:15.139Z,17.04
2022-07-25T03:29:48.481Z,17.04
2022-07-25T03:30:21.608Z,17.04
2022-07-25T03:30:54.853Z,17.03
2022-07-25T03:31:28.848Z,17.03
2022-07-25T03:32:02.314Z,17.02
2022-07-25T03:32:35.541Z,17.02
2022-07-25T03:33:08.742Z,17.02
2022-07-25T03:33:41.934Z,17.02
2022-07-25T03:34:14.982Z,17.02
2022-07-25T03:34:47.977Z,17.03
2022-07-25T03:35:21.193Z,17.04
2022-07-25T03:35:54.262Z,17.05
2022-07-25T03:36:27.310Z,17.06
2022-07-25T03:37:00.710Z,17.07
2022-07-25T03:37:34.080Z,17.08
2022-07-25T03:38:08.035Z,17.07
2022-07-25T03:38:41.056Z,17.08
2022-07-25T03:39:14.725Z,17.08
2022-07-25T03:39:47.770Z,17.08
2022-07-25T03:40:20.888Z,17.08
2022-07-25T03:40:53.870Z,17.08
2022-07-25T03:41:28.024Z,17.09
2022-07-25T03:42:01.610Z,17.09
2022-07-25T03:42:35.651Z,17.09
2022-07-25T03:43:08.890Z,17.08
2022-07-25T03:43:41.986Z,17.09
2022-07-25T03:44:15.119Z,17.08
2022-07-25T03:44:48.048Z,17.09
2022-07-25T03:45:21.176Z,17.09
2022-07-25T03:45:54.375Z,17.10
2022-07-25T03:46:27.616Z,17.10
2022-07-25T03:47:00.705Z,17.11
2022-07-25T03:47:33.888Z,17.12
2022-07-25T03:48:06.980Z,17.12
2022-07-25T03:48:40.207Z,17.14
2022-07-25T03:49:13.455Z,17.15
2022-07-25T03:49:46.535Z,17.16
2022-07-25T03:50:19.846Z,17.17
2022-07-25T03:50:53.003Z,17.18
2022-07-25T03:51:26.255Z,17.19
2022-07-25T03:51:59.976Z,17.20
2022-07-25T03:52:33.115Z,17.20
2022-07-25T03:53:06.171Z,17.20
2022-07-25T03:53:59.151Z,17.20
2022-07-25T03:54:32.293Z,17.20
2022-07-25T03:55:10.742Z,17.18
2022-07-25T03:55:43.965Z,17.19
2022-07-25T03:56:17.004Z,17.19
2022-07-25T03:56:52.842Z,17.19
2022-07-25T03:57:26.038Z,17.19
2022-07-25T03:57:59.100Z,17.18
2022-07-25T03:58:32.114Z,17.19
2022-07-25T03:59:06.050Z,17.20
2022-07-25T03:59:39.442Z,17.22
2022-07-25T04:00:13.245Z,17.23
2022-07-25T04:00:48.053Z,17.25
2022-07-25T04:01:21.835Z,17.27
2022-07-25T04:01:55.492Z,17.28
2022-07-25T04:02:28.635Z,17.29
2022-07-25T04:03:01.787Z,17.30
2022-07-25T04:03:34.822Z,17.31
2022-07-25T04:04:08.683Z,17.32
2022-07-25T04:04:42.422Z,17.33
2022-07-25T04:05:15.536Z,17.34
2022-07-25T04:05:48.576Z,17.36
2022-07-25T04:06:21.819Z,17.37
2022-07-25T04:06:54.837Z,17.37
2022-07-25T04:07:27.950Z,17.38
2022-07-25T04:08:01.152Z,17.40
2022-07-25T04:08:34.164Z,17.40
2022-07-25T04:09:08.826Z,17.42
2022-07-25T04:09:42.522Z,17.44
2022-07-25T04:10:15.641Z,17.47
2022-07-25T04:10:48.673Z,17.48
2022-07-25T04:11:22.129Z,17.50
2022-07-25T04:11:55.269Z,17.51
2022-07-25T04:12:28.539Z,17.53
2022-07-25T04:13:03.223Z,17.55
2022-07-25T04:13:36.465Z,17.57
2022-07-25T04:14:10.002Z,17.59
2022-07-25T04:14:43.503Z,17.60
2022-07-25T04:15:17.087Z,17.61
2022-07-25T04:15:50.219Z,17.62
2022-07-25T04:16:25.668Z,17.63
2022-07-25T04:17:01.217Z,17.65
2022-07-25T04:17:34.317Z,17.66
2022-07-25T04:18:07.615Z,17.68
2022-07-25T04:18:43.435Z,17.68
2022-07-25T04:19:16.879Z,17.68
2022-07-25T04:19:50.641Z,17.69
2022-07-25T04:20:23.799Z,17.70
2022-07-25T04:20:58.220Z,17.71
2022-07-25T04:21:31.742Z,17.73
2022-07-25T04:22:04.830Z,17.75
2022-07-25T04:22:40.086Z,17.77
2022-07-25T04:23:15.438Z,17.78
2022-07-25T04:23:49.691Z,17.81
2022-07-25T04:24:22.834Z,17.82
2022-07-25T04:24:55.879Z,17.86
2022-07-25T04:25:28.955Z,17.89
2022-07-25T04:26:02.405Z,17.91
2022-07-25T04:26:35.518Z,17.94
2022-07-25T04:27:08.685Z,17.96
2022-07-25T04:27:41.805Z,17.98
2022-07-25T04:28:14.972Z,18.01
2022-07-25T04:28:48.166Z,18.03
2022-07-25T04:29:21.367Z,18.06
2022-07-25T04:29:54.486Z,18.08
2022-07-25T04:30:27.691Z,18.10
2022-07-25T04:31:01.281Z,18.13
2022-07-25T04:31:34.505Z,18.15
2022-07-25T04:32:07.839Z,18.17
2022-07-25T04:32:41.011Z,18.21
2022-07-25T04:33:15.666Z,18.25
2022-07-25T04:33:48.863Z,18.28
2022-07-25T04:34:21.955Z,18.31
2022-07-25T04:34:55.643Z,18.34
2022-07-25T04:35:28.899Z,18.38
2022-07-25T04:36:02.011Z,18.40
2022-07-25T04:36:35.069Z,18.44
2022-07-25T04:37:08.135Z,18.47
2022-07-25T04:37:41.244Z,18.50
2022-07-25T04:38:14.813Z,18.55
2022-07-25T04:38:47.943Z,18.58
2022-07-25T04:39:20.984Z,18.61
2022-07-25T04:39:54.084Z,18.64
2022-07-25T04:40:27.153Z,18.68
2022-07-25T04:41:00.360Z,18.71
2022-07-25T04:41:33.452Z,18.74
2022-07-25T04:42:06.574Z,18.78
2022-07-25T04:42:39.679Z,18.81
2022-07-25T04:43:12.969Z,18.83
2022-07-25T04:43:48.788Z,18.86
2022-07-25T04:44:22.187Z,18.91
2022-07-25T04:44:55.283Z,18.94
2022-07-25T04:45:28.359Z,18.96
2022-07-25T04:46:02.209Z,18.99
2022-07-25T04:46:35.378Z,19.02
2022-07-25T04:47:08.619Z,19.06
2022-07-25T04:47:41.738Z,19.09
2022-07-25T04:48:14.895Z,19.12
2022-07-25T04:48:48.649Z,19.16
2022-07-25T04:49:21.852Z,19.19
2022-07-25T04:49:56.346Z,19.22
2022-07-25T04:50:30.397Z,19.25
2022-07-25T04:51:03.496Z,19.29
2022-07-25T04:51:36.540Z,19.31
2022-07-25T04:52:09.933Z,19.34
2022-07-25T04:52:43.500Z,19.37
2022-07-25T04:53:16.542Z,19.40
2022-07-25T04:53:49.799Z,19.42
2022-07-25T04:54:22.921Z,19.44
2022-07-25T04:54:56.016Z,19.47
2022-07-25T04:55:29.195Z,19.49
2022-07-25T04:56:02.335Z,19.52
2022-07-25T04:56:35.630Z,19.54
2022-07-25T04:57:08.696Z,19.58
2022-07-25T04:57:42.038Z,19.61
2022-07-25T04:58:15.866Z,19.64
2022-07-25T04:58:49.673Z,19.68
2022-07-25T04:59:22.790Z,19.70
2022-07-25T04:59:56.623Z,19.72
2022-07-25T05:00:29.866Z,19.75
2022-07-25T05:01:03.046Z,19.78
2022-07-25T05:01:36.467Z,19.80
2022-07-25T05:02:09.547Z,19.82
2022-07-25T05:02:43.752Z,19.85
2022-07-25T05:03:16.906Z,19.87
2022-07-25T05:03:50.785Z,19.90
2022-07-25T05:04:23.967Z,19.92
2022-07-25T05:04:57.189Z,19.94
2022-07-25T05:05:30.476Z,19.96
2022-07-25T05:06:03.765Z,19.99
2022-07-25T05:06:36.860Z,19.99
2022-07-25T05:07:09.938Z,20.01
2022-07-25T05:07:42.916Z,20.03
2022-07-25T05:08:15.974Z,20.06
2022-07-25T05:08:49.106Z,20.08
2022-07-25T05:09:22.222Z,20.11
2022-07-25T05:09:55.569Z,20.13
2022-07-25T05:10:30.214Z,20.16
2022-07-25T05:11:03.281Z,20.18
2022-07-25T05:11:36.301Z,20.21
2022-07-25T05:12:09.494Z,20.23
2022-07-25T05:12:42.580Z,20.24
2022-07-25T05:13:16.519Z,20.25
2022-07-25T05:13:49.640Z,20.27
2022-07-25T05:14:22.755Z,20.29
2022-07-25T05:14:55.847Z,20.31
2022-07-25T05:15:28.974Z,20.31
2022-07-25T05:16:03.452Z,20.30
2022-07-25T05:16:36.582Z,20.32
2022-07-25T05:17:09.878Z,20.34
2022-07-25T05:17:43.749Z,20.36
2022-07-25T05:18:16.928Z,20.37
2022-07-25T05:18:50.005Z,20.39
2022-07-25T05:19:23.018Z,20.40
2022-07-25T05:19:58.329Z,20.41
2022-07-25T05:20:31.917Z,20.44
2022-07-25T05:21:05.100Z,20.45
2022-07-25T05:21:38.645Z,20.47
2022-07-25T05:22:12.012Z,20.49
2022-07-25T05:22:45.215Z,20.50
2022-07-25T05:23:18.279Z,20.52
2022-07-25T05:23:51.485Z,20.54
2022-07-25T05:24:24.658Z,20.55
2022-07-25T05:24:57.836Z,20.58
2022-07-25T05:25:30.846Z,20.59
2022-07-25T05:26:03.968Z,20.60
2022-07-25T05:26:37.075Z,20.61
2022-07-25T05:27:10.146Z,20.62
2022-07-25T05:27:43.295Z,20.64
2022-07-25T05:28:16.448Z,20.65
2022-07-25T05:28:49.560Z,20.66
2022-07-25T05:29:22.620Z,20.68
2022-07-25T05:29:55.650Z,20.69
2022-07-25T05:30:28.905Z,20.70
2022-07-25T05:31:02.251Z,20.70
2022-07-25T05:31:35.476Z,20.69
2022-07-25T05:32:11.731Z,20.68
2022-07-25T05:32:44.894Z,20.68
2022-07-25T05:33:17.925Z,20.68
2022-07-25T05:33:50.948Z,20.69
2022-07-25T05:34:24.164Z,20.70
2022-07-25T05:34:57.300Z,20.73
2022-07-25T05:35:30.480Z,20.75
2022-07-25T05:36:05.463Z,20.77
2022-07-25T05:36:38.631Z,20.77
2022-07-25T05:37:11.987Z,20.78
2022-07-25T05:37:45.058Z,20.79
2022-07-25T05:38:18.690Z,20.82
2022-07-25T05:38:52.048Z,20.86
2022-07-25T05:39:25.006Z,20.88
2022-07-25T05:39:58.206Z,20.91
2022-07-25T05:40:31.376Z,20.93
2022-07-25T05:41:04.823Z,20.96
2022-07-25T05:41:38.144Z,20.97
2022-07-25T05:42:11.376Z,20.98
2022-07-25T05:42:44.494Z,21.00
2022-07-25T05:43:17.628Z,21.02
2022-07-25T05:43:50.897Z,21.04
2022-07-25T05:44:23.909Z,21.05
2022-07-25T05:44:56.872Z,21.06
2022-07-25T05:45:29.976Z,21.09
2022-07-25T05:46:05.175Z,21.11
2022-07-25T05:46:38.356Z,21.13
2022-07-25T05:47:12.247Z,21.14
2022-07-25T05:47:45.667Z,21.17
2022-07-25T05:48:18.746Z,21.20
2022-07-25T05:48:51.950Z,21.21
2022-07-25T05:49:25.046Z,21.23
2022-07-25T05:49:58.179Z,21.24
2022-07-25T05:50:31.171Z,21.26
2022-07-25T05:51:04.214Z,21.27
2022-07-25T05:51:37.371Z,21.27
2022-07-25T05:52:13.118Z,21.28
2022-07-25T05:52:46.493Z,21.30
2022-07-25T05:53:19.538Z,21.31
2022-07-25T05:53:52.581Z,21.33
2022-07-25T05:54:25.696Z,21.34
2022-07-25T05:55:00.654Z,21.35
2022-07-25T05:55:33.904Z,21.37
2022-07-25T05:56:07.241Z,21.38
2022-07-25T05:56:40.454Z,21.40
2022-07-25T05:57:13.450Z,21.41
2022-07-25T05:57:46.497Z,21.42
2022-07-25T05:58:19.615Z,21.43
2022-07-25T05:58:52.620Z,21.45
2022-07-25T05:59:25.725Z,21.48
2022-07-25T05:59:58.923Z,21.49
2022-07-25T06:00:32.185Z,21.52
2022-07-25T06:01:05.344Z,21.53
2022-07-25T06:01:38.386Z,21.54
2022-07-25T06:02:11.725Z,21.56
2022-07-25T06:02:45.117Z,21.58
2022-07-25T06:03:19.257Z,21.62
2022-07-25T06:03:52.305Z,21.65
2022-07-25T06:04:27.247Z,21.68
2022-07-25T06:05:00.644Z,21.71
2022-07-25T06:05:33.758Z,21.74
2022-07-25T06:06:11.234Z,21.77
2022-07-25T06:06:51.313Z,21.80
2022-07-25T06:07:24.383Z,21.83
2022-07-25T06:07:57.546Z,21.87
2022-07-25T06:08:31.326Z,21.89
2022-07-25T06:09:08.012Z,21.92
2022-07-25T06:09:41.284Z,21.95
2022-07-25T06:10:14.392Z,21.98
2022-07-25T06:10:47.468Z,22.00
2022-07-25T06:11:21.213Z,22.03
2022-07-25T06:11:59.754Z,22.06
2022-07-25T06:12:36.694Z,22.08
2022-07-25T06:13:10.108Z,22.10
2022-07-25T06:13:43.631Z,22.12
2022-07-25T06:14:17.476Z,22.12
2022-07-25T06:14:50.642Z,22.13
2022-07-25T06:15:26.985Z,22.13
2022-07-25T06:16:01.083Z,22.14
2022-07-25T06:16:35.155Z,22.16
2022-07-25T06:17:08.383Z,22.18
2022-07-25T06:17:41.696Z,22.20
2022-07-25T06:18:15.227Z,22.23
2022-07-25T06:18:48.320Z,22.25
2022-07-25T06:19:21.495Z,22.26
2022-07-25T06:19:54.647Z,22.28
2022-07-25T06:20:27.810Z,22.28
2022-07-25T06:21:01.082Z,22.27
2022-07-25T06:21:34.571Z,22.27
2022-07-25T06:22:09.567Z,22.26
2022-07-25T06:22:42.723Z,22.27
2022-07-25T06:23:16.663Z,22.27
2022-07-25T06:23:49.814Z,22.28
2022-07-25T06:24:23.031Z,22.30
2022-07-25T06:24:56.354Z,22.32
2022-07-25T06:25:29.453Z,22.33
2022-07-25T06:26:02.636Z,22.36
2022-07-25T06:26:38.643Z,22.37
2022-07-25T06:27:14.923Z,22.40
2022-07-25T06:27:50.529Z,22.43
2022-07-25T06:28:23.661Z,22.45
2022-07-25T06:28:57.128Z,22.47
2022-07-25T06:29:30.176Z,22.49
2022-07-25T06:30:05.337Z,22.51
2022-07-25T06:30:38.921Z,22.52
2022-07-25T06:31:12.024Z,22.54
2022-07-25T06:31:46.443Z,22.55
2022-07-25T06:32:20.731Z,22.56
2022-07-25T06:32:53.871Z,22.59
2022-07-25T06:33:26.957Z,22.61
2022-07-25T06:34:00.099Z,22.64
2022-07-25T06:34:33.189Z,22.66
2022-07-25T06:35:06.820Z,22.68
2022-07-25T06:35:40.089Z,22.70
2022-07-25T06:36:13.242Z,22.71
2022-07-25T06:36:46.411Z,22.72
2022-07-25T06:37:19.565Z,22.73
2022-07-25T06:37:52.655Z,22.74
2022-07-25T06:38:25.812Z,22.75
2022-07-25T06:38:59.411Z,22.77
2022-07-25T06:39:32.927Z,22.78
2022-07-25T06:40:06.729Z,22.80
2022-07-25T06:40:39.873Z,22.80
2022-07-25T06:41:16.271Z,22.81
2022-07-25T06:41:49.767Z,22.82
2022-07-25T06:42:23.138Z,22.83
2022-07-25T06:42:56.308Z,22.83
2022-07-25T06:43:29.608Z,22.82
2022-07-25T06:44:03.380Z,22.81
2022-07-25T06:44:36.696Z,22.82
2022-07-25T06:45:11.617Z,22.82
2022-07-25T06:45:47.732Z,22.83
2022-07-25T06:46:20.945Z,22.85
2022-07-25T06:46:54.319Z,22.86
2022-07-25T06:47:27.608Z,22.87
2022-07-25T06:48:00.741Z,22.88
2022-07-25T06:48:33.919Z,22.89
2022-07-25T06:49:07.270Z,22.90
2022-07-25T06:49:42.085Z,22.90
2022-07-25T06:50:18.997Z,22.89
2022-07-25T06:50:54.515Z,22.89
2022-07-25T06:51:28.082Z,22.89
2022-07-25T06:52:01.268Z,22.90
2022-07-25T06:52:35.054Z,22.89
2022-07-25T06:53:08.416Z,22.90
2022-07-25T06:53:41.471Z,22.91
2022-07-25T06:54:15.801Z,22.91
2022-07-25T06:54:49.057Z,22.92
2022-07-25T06:55:22.244Z,22.92
2022-07-25T06:55:55.332Z,22.93
2022-07-25T06:56:31.754Z,22.95
2022-07-25T06:57:05.753Z,22.96
2022-07-25T06:57:38.972Z,22.96
2022-07-25T06:58:12.082Z,22.96
2022-07-25T06:58:46.007Z,22.97
2022-07-25T06:59:19.230Z,22.97
2022-07-25T06:59:52.273Z,22.97
2022-07-25T07:00:26.022Z,22.98
2022-07-25T07:01:01.573Z,22.99
2022-07-25T07:01:34.824Z,23.00
2022-07-25T07:02:08.250Z,23.00
2022-07-25T07:02:59.984Z,23.02
2022-07-25T07:03:38.328Z,23.03
2022-07-25T07:04:11.654Z,23.04
2022-07-25T07:04:44.769Z,23.06
2022-07-25T07:05:18.154Z,23.09
2022-07-25T07:05:51.433Z,23.11
2022-07-25T07:06:24.469Z,23.13
2022-07-25T07:06:58.241Z,23.15
2022-07-25T07:07:31.503Z,23.18
2022-07-25T07:08:05.267Z,23.20
2022-07-25T07:08:38.534Z,23.22
2022-07-25T07:09:11.783Z,23.25
2022-07-25T07:09:45.146Z,23.28
2022-07-25T07:10:19.039Z,23.31
2022-07-25T07:10:52.224Z,23.34
2022-07-25T07:11:25.361Z,23.37
2022-07-25T07:11:58.484Z,23.38
2022-07-25T07:12:31.497Z,23.41
2022-07-25T07:13:12.662Z,23.43
2022-07-25T07:13:45.915Z,23.46
2022-07-25T07:14:19.090Z,23.49